Time;durP1;ratioP1;P1;durP2;ratioP2;P2;SDS_P1;SDS_P2;PMS_P1;PMS_P2;Temp;Humidity;BMP_temperature;BMP_pressure;BME280_temperature;BME280_humidity;BME280_pressure;Samples;Min_cycle;Max_cycle;Signal;HPM_P1;HPM_P2
2022/10/26 00:01:08;;;;;;;6.58;6.08;;;;;;;12.33;100.00;100049.77;1661295;84;21198;-79
2022/10/26 00:03:37;;;;;;;7.25;6.55;;;;;;;12.31;100.00;100055.31;1669573;84;21033;-79
2022/10/26 00:06:15;;;;;;;6.05;5.65;;;;;;;12.30;100.00;100055.51;1669306;83;20998;-80
2022/10/26 00:08:45;;;;;;;7.20;6.60;;;;;;;12.29;100.00;100053.88;1654303;84;21050;-77
2022/10/26 00:11:12;;;;;;;6.03;5.62;;;;;;;12.27;100.00;100049.55;1670678;85;21504;-76
2022/10/26 00:13:40;;;;;;;6.25;5.75;;;;;;;12.25;100.00;100048.94;1670663;84;21041;-79
2022/10/26 00:16:18;;;;;;;6.20;5.75;;;;;;;12.21;100.00;100047.71;1664782;84;21553;-79
2022/10/26 00:18:46;;;;;;;6.53;6.03;;;;;;;12.19;100.00;100049.77;1666223;84;21642;-72
2022/10/26 00:21:13;;;;;;;7.60;6.95;;;;;;;12.18;100.00;100062.81;1668807;84;21121;-78
2022/10/26 00:23:41;;;;;;;6.97;6.47;;;;;;;12.19;100.00;100070.33;1670513;84;21050;-78
2022/10/26 00:26:09;;;;;;;7.40;5.97;;;;;;;12.20;100.00;100063.95;1670366;84;21038;-78
2022/10/26 00:28:35;;;;;;;6.92;6.47;;;;;;;12.21;100.00;100068.28;1670800;83;21064;-80
2022/10/26 00:31:06;;;;;;;6.47;6.08;;;;;;;12.20;100.00;100071.96;1653669;84;21021;-79
2022/10/26 00:33:34;;;;;;;7.35;6.80;;;;;;;12.19;100.00;100064.47;1664625;84;21128;-78
2022/10/26 00:36:00;;;;;;;6.35;5.95;;;;;;;12.20;100.00;100071.44;1698255;83;21109;-78
2022/10/26 00:38:26;;;;;;;;;;;;;;;12.21;100.00;100070.95;1686639;83;21079;-79
2022/10/26 00:40:53;;;;;;;6.87;6.22;;;;;;;12.25;100.00;100078.86;1682113;83;20136;-80
2022/10/26 00:43:28;;;;;;;6.60;6.00;;;;;;;12.20;100.00;100073.30;1667281;84;21026;-79
2022/10/26 00:45:57;;;;;;;6.67;6.15;;;;;;;12.21;100.00;100071.77;1669341;84;21085;-78
2022/10/26 00:48:37;;;;;;;6.92;6.42;;;;;;;12.21;100.00;100067.75;1666816;84;21090;-77
2022/10/26 00:51:12;;;;;;;7.33;6.78;;;;;;;12.19;100.00;100066.33;1631664;86;21519;-78
2022/10/26 00:53:39;;;;;;;6.08;5.67;;;;;;;12.16;100.00;100070.73;1685314;83;21062;-78
2022/10/26 00:56:06;;;;;;;8.75;8.00;;;;;;;12.09;100.00;100070.72;1699656;82;21025;-78
2022/10/26 00:58:34;;;;;;;8.08;6.87;;;;;;;12.07;100.00;100070.95;1661698;85;21101;-77
2022/10/26 01:01:01;;;;;;;7.33;6.62;;;;;;;12.10;100.00;100077.72;1700898;83;21087;-78
2022/10/26 01:03:28;;;;;;;;;;;;;;;12.12;100.00;100070.31;1697145;83;21064;-77
2022/10/26 01:05:57;;;;;;;9.83;8.88;;;;;;;12.13;100.00;100074.65;1698763;83;20409;-79
2022/10/26 01:08:27;;;;;;;8.53;7.72;;;;;;;12.06;100.00;100071.95;1659787;84;21054;-80
2022/10/26 01:10:55;;;;;;;9.08;8.38;;;;;;;12.08;100.00;100071.77;1670762;84;21022;-81
2022/10/26 01:13:26;;;;;;;9.88;8.98;;;;;;;12.09;100.00;100070.72;1677873;84;21687;-78
2022/10/26 01:16:04;;;;;;;10.05;9.15;;;;;;;12.12;100.00;100068.98;1699142;83;21037;-75
2022/10/26 01:19:02;;;;;;;10.35;9.55;;;;;;;12.14;100.00;100073.60;1688120;83;20989;-79
2022/10/26 01:21:37;;;;;;;10.65;9.55;;;;;;;12.15;100.00;100069.92;1664060;84;21039;-77
2022/10/26 01:24:33;;;;;;;11.40;10.20;;;;;;;12.15;100.00;100065.91;1649344;84;21128;-74
2022/10/26 01:27:28;;;;;;;11.15;9.90;;;;;;;12.17;100.00;100070.53;1663607;84;21035;-76
2022/10/26 01:30:19;;;;;;;13.32;11.90;;;;;;;12.20;100.00;100075.45;1687519;84;21105;-79
2022/10/26 01:33:20;;;;;;;11.53;10.38;;;;;;;12.20;100.00;100072.78;1650951;84;21468;-79
2022/10/26 01:36:20;;;;;;;11.10;10.00;;;;;;;12.20;100.00;100067.95;1695432;83;21058;-78
2022/10/26 01:39:25;;;;;;;11.90;10.38;;;;;;;12.20;100.00;100063.95;1661342;84;21562;-75
2022/10/26 01:41:57;;;;;;;12.33;11.12;;;;;;;12.20;100.00;100063.42;1676417;84;21532;-78
2022/10/26 01:44:40;;;;;;;10.38;9.48;;;;;;;12.21;100.00;100068.28;1680809;84;21166;-76
2022/10/26 01:47:08;;;;;;;10.63;9.75;;;;;;;12.23;100.00;100073.71;1670755;84;21042;-78
2022/10/26 01:49:42;;;;;;;11.12;9.50;;;;;;;12.22;100.00;100069.41;1664087;84;21482;-76
2022/10/26 01:52:10;;;;;;;10.90;9.90;;;;;;;12.23;100.00;100068.37;1658620;84;21078;-75
2022/10/26 01:54:37;;;;;;;11.38;10.38;;;;;;;12.23;100.00;100071.04;1687359;85;20999;-78
2022/10/26 01:57:07;;;;;;;9.63;8.83;;;;;;;12.24;100.00;100077.20;1641678;87;21795;-77
2022/10/26 02:00:09;;;;;;;9.33;8.58;;;;;;;12.27;100.00;100076.28;1695297;84;21025;-74
2022/10/26 02:03:03;;;;;;;8.95;7.95;;;;;;;12.29;100.00;100073.92;1701061;83;21144;-77
2022/10/26 02:05:42;;;;;;;10.03;7.58;;;;;;;12.29;100.00;100077.41;1669701;85;21481;-77
2022/10/26 02:08:14;;;;;;;9.18;8.38;;;;;;;12.30;100.00;100083.08;1710607;84;21039;-78
2022/10/26 02:10:52;;;;;;;8.03;7.33;;;;;;;12.31;100.00;100087.91;1686652;83;21082;-76
2022/10/26 02:13:41;;;;;;;8.58;7.78;;;;;;;12.34;100.00;100088.80;1694035;84;21045;-77
2022/10/26 02:16:27;;;;;;;8.58;7.87;;;;;;;12.33;100.00;100091.19;1699014;83;21065;-64
2022/10/26 02:19:16;;;;;;;8.03;7.35;;;;;;;12.33;100.00;100091.19;1698094;84;21057;-78
2022/10/26 02:21:47;;;;;;;8.00;7.28;;;;;;;12.33;100.00;100092.52;1667351;84;21493;-80
2022/10/26 02:24:16;;;;;;;8.50;7.72;;;;;;;12.33;100.00;100093.34;1632403;86;21138;-80
2022/10/26 02:26:46;;;;;;;8.55;7.80;;;;;;;12.34;100.00;100087.47;1660705;84;21539;-78
2022/10/26 02:29:16;;;;;;;8.45;7.75;;;;;;;12.34;100.00;100089.66;1664691;84;21094;-79
2022/10/26 02:31:47;;;;;;;8.78;7.72;;;;;;;12.35;100.00;100092.62;1670692;85;21097;-78
2022/10/26 02:34:18;;;;;;;10.18;7.35;;;;;;;12.35;100.00;100085.13;1699581;84;20978;-78
2022/10/26 02:36:48;;;;;;;7.78;7.15;;;;;;;12.36;100.00;100085.45;1703738;83;21021;-78
2022/10/26 02:39:17;;;;;;;7.62;6.92;;;;;;;12.38;100.00;100086.05;1672117;84;21125;-77
2022/10/26 02:41:45;;;;;;;7.97;7.37;;;;;;;12.40;100.00;100085.33;1697453;83;20986;-76
2022/10/26 02:44:24;;;;;;;7.95;7.35;;;;;;;12.41;100.00;100084.28;1698339;84;21116;-73
2022/10/26 02:46:54;;;;;;;7.60;6.72;;;;;;;12.42;100.00;100083.27;1644360;86;21053;-76
2022/10/26 02:49:23;;;;;;;8.40;7.22;;;;;;;12.42;100.00;100084.09;1652832;86;20993;-77
2022/10/26 02:52:13;;;;;;;8.33;6.90;;;;;;;12.40;100.00;100084.81;1674282;84;21137;-76
2022/10/26 02:55:20;;;;;;;8.40;7.42;;;;;;;12.41;100.00;100081.13;1605888;86;21117;-78
2022/10/26 02:57:50;;;;;;;7.37;6.78;;;;;;;12.41;100.00;100074.94;1677201;84;21008;-78
2022/10/26 03:00:18;;;;;;;7.28;6.20;;;;;;;12.40;100.00;100076.80;1669513;84;21570;-78
2022/10/26 03:02:52;;;;;;;7.62;7.00;;;;;;;12.41;100.00;100089.14;1678221;84;21107;-78
2022/10/26 03:05:23;;;;;;;7.00;6.40;;;;;;;12.40;100.00;100091.49;1653136;85;21490;-61
2022/10/26 03:07:51;;;;;;;8.18;7.47;;;;;;;12.40;100.00;100093.35;1688368;83;21013;-61
2022/10/26 03:10:18;;;;;;;7.20;6.62;;;;;;;12.43;100.00;100094.26;1705295;82;21053;-63
2022/10/26 03:12:46;;;;;;;8.05;7.35;;;;;;;12.44;100.00;100095.39;1712767;82;21112;-66
2022/10/26 03:16:30;;;;;;;7.85;7.20;;;;;;;12.43;100.00;100094.26;1786507;77;22844;-64
2022/10/26 03:18:57;;;;;;;8.55;6.78;;;;;;;12.32;100.00;100104.23;1707528;83;21060;-62
2022/10/26 03:21:23;;;;;;;7.90;7.30;;;;;;;12.32;100.00;100105.56;1722138;81;21033;-61
2022/10/26 03:23:50;;;;;;;7.95;7.25;;;;;;;12.31;100.00;100100.74;1724389;81;21053;-62
2022/10/26 03:26:16;;;;;;;8.00;7.25;;;;;;;12.29;100.00;100102.80;1731197;81;21311;-62
2022/10/26 03:28:42;;;;;;;;;;;;;;;12.28;100.00;100098.47;1685384;83;20991;-63
2022/10/26 03:31:09;;;;;;;7.50;6.80;;;;;;;12.32;100.00;100097.55;1685010;84;20420;-62
2022/10/26 03:33:36;;;;;;;7.90;7.12;;;;;;;12.29;100.00;100102.80;1708567;82;20997;-62
2022/10/26 03:36:02;;;;;;;8.00;7.37;;;;;;;12.30;100.00;100100.45;1718613;82;21057;-62
2022/10/26 03:38:28;;;;;;;7.67;6.97;;;;;;;12.31;100.00;100099.93;1718039;82;21606;-63
2022/10/26 03:40:54;;;;;;;8.30;7.55;;;;;;;12.32;100.00;100103.73;1717118;82;21022;-62
2022/10/26 03:43:20;;;;;;;7.62;6.97;;;;;;;12.36;100.00;100105.48;1677452;83;21051;-62
2022/10/26 03:45:47;;;;;;;8.03;7.28;;;;;;;12.40;100.00;100104.05;1684470;83;21490;-62
2022/10/26 03:48:14;;;;;;;7.17;6.58;;;;;;;12.41;100.00;100103.00;1679731;84;21114;-62
2022/10/26 03:50:40;;;;;;;8.33;7.58;;;;;;;12.45;100.00;100106.90;1656127;85;21025;-62
2022/10/26 03:53:07;;;;;;;7.95;7.33;;;;;;;12.46;100.00;100110.70;1667481;85;21053;-68
2022/10/26 03:55:33;;;;;;;7.50;6.87;;;;;;;12.46;100.00;100097.86;1674971;85;21077;-63
2022/10/26 03:57:59;;;;;;;10.40;7.90;;;;;;;12.45;100.00;100105.56;1648455;86;21113;-62
2022/10/26 04:00:25;;;;;;;7.87;6.90;;;;;;;12.45;100.00;100106.90;1684921;84;21014;-62
2022/10/26 04:02:59;;;;;;;7.97;7.17;;;;;;;12.45;100.00;100102.40;1712472;82;21510;-61
2022/10/26 04:05:29;;;;;;;8.08;7.35;;;;;;;12.45;100.00;100101.06;1717724;82;20981;-63
2022/10/26 04:08:01;;;;;;;7.60;7.00;;;;;;;12.43;100.00;100105.80;1715594;83;21002;-61
2022/10/26 04:10:30;;;;;;;8.50;7.62;;;;;;;12.45;100.00;100107.74;1710050;82;21526;-62
2022/10/26 04:13:00;;;;;;;10.03;7.40;;;;;;;12.47;100.00;100103.53;1701233;82;21089;-62
2022/10/26 04:15:28;;;;;;;7.65;6.83;;;;;;;12.49;100.00;100097.46;1677060;84;21136;-66
2022/10/26 04:17:57;;;;;;;8.58;7.78;;;;;;;12.50;100.00;100099.09;1673438;84;21056;-62
2022/10/26 04:20:26;;;;;;;7.75;6.90;;;;;;;12.53;100.00;100100.55;1662331;84;21425;-64
2022/10/26 04:23:02;;;;;;;8.35;7.65;;;;;;;12.52;100.00;100095.69;1685922;84;21088;-62
2022/10/26 04:25:31;;;;;;;8.05;7.00;;;;;;;12.54;100.00;100096.83;1685203;85;21029;-68
2022/10/26 04:27:57;;;;;;;7.70;7.00;;;;;;;12.54;100.00;100090.95;1696972;84;21094;-63
2022/10/26 04:30:25;;;;;;;7.62;6.58;;;;;;;12.54;100.00;100089.62;1687391;85;21017;-61
2022/10/26 04:32:51;;;;;;;7.60;6.90;;;;;;;12.49;100.00;100089.94;1674630;83;21013;-62
2022/10/26 04:35:18;;;;;;;7.67;6.97;;;;;;;12.47;100.00;100087.49;1673688;84;21492;-63
2022/10/26 04:37:44;;;;;;;7.80;7.10;;;;;;;12.47;100.00;100082.14;1678629;84;20990;-65
2022/10/26 04:40:12;;;;;;;7.40;6.80;;;;;;;12.48;100.00;100078.95;1664976;84;21053;-66
2022/10/26 04:42:43;;;;;;;7.22;6.55;;;;;;;12.49;100.00;100082.76;1654501;85;20994;-62
2022/10/26 04:45:12;;;;;;;8.18;7.47;;;;;;;12.49;100.00;100084.09;1669828;84;21068;-61
2022/10/26 04:47:38;;;;;;;8.60;7.80;;;;;;;12.49;100.00;100085.44;1697566;84;21109;-68
2022/10/26 04:50:08;;;;;;;8.25;7.28;;;;;;;12.49;100.00;100084.09;1668418;84;21028;-67
2022/10/26 04:52:34;;;;;;;6.55;5.85;;;;;;;12.50;100.00;100087.59;1655246;85;21533;-68
2022/10/26 04:55:04;;;;;;;12.28;7.15;;;;;;;12.51;100.00;100092.73;1654947;85;21118;-68
2022/10/26 04:57:32;;;;;;;9.75;7.50;;;;;;;12.54;100.00;100093.63;1657324;85;21169;-69
2022/10/26 05:00:00;;;;;;;8.45;6.58;;;;;;;12.56;100.00;100096.92;1655678;85;21053;-70
2022/10/26 05:02:28;;;;;;;9.48;7.10;;;;;;;12.56;100.00;100092.09;1660350;85;21078;-70
2022/10/26 05:04:55;;;;;;;7.90;7.20;;;;;;;12.52;100.00;100091.69;1651018;85;21180;-69
2022/10/26 05:07:22;;;;;;;7.58;6.35;;;;;;;12.53;100.00;100091.19;1652043;85;21096;-69
2022/10/26 05:09:49;;;;;;;7.33;6.70;;;;;;;12.54;100.00;100093.63;1655089;85;20974;-69
2022/10/26 05:12:15;;;;;;;6.92;6.17;;;;;;;12.54;100.00;100097.64;1658134;84;21081;-68
2022/10/26 05:14:42;;;;;;;7.65;6.95;;;;;;;12.55;100.00;100097.16;1692011;84;21076;-69
2022/10/26 05:17:09;;;;;;;9.18;6.15;;;;;;;12.55;100.00;100097.97;1691201;84;20958;-68
2022/10/26 05:19:36;;;;;;;8.40;7.25;;;;;;;12.56;100.00;100103.60;1681505;84;21558;-67
2022/10/26 05:22:04;;;;;;;7.25;6.62;;;;;;;12.56;100.00;100108.95;1706453;84;21073;-69
2022/10/26 05:24:32;;;;;;;6.95;6.35;;;;;;;12.58;100.00;100106.92;1712482;83;21175;-65
2022/10/26 05:26:58;;;;;;;8.63;7.08;;;;;;;12.59;100.00;100105.88;1694152;84;21137;-63
2022/10/26 05:29:24;;;;;;;7.30;6.72;;;;;;;12.63;100.00;100107.09;1693076;84;21053;-72
2022/10/26 05:31:51;;;;;;;9.38;7.05;;;;;;;12.65;100.00;100107.71;1679442;84;21097;-70
2022/10/26 05:34:17;;;;;;;;;;;;;;;12.71;100.00;100105.24;1650065;86;21056;-76
2022/10/26 05:36:43;;;;;;;8.15;6.20;;;;;;;12.74;100.00;100108.85;1641194;86;20141;-78
2022/10/26 05:39:09;;;;;;;7.97;6.00;;;;;;;12.72;100.00;100108.23;1645801;86;21074;-78
2022/10/26 05:41:35;;;;;;;6.90;6.20;;;;;;;12.76;100.00;100113.47;1642624;85;21016;-73
2022/10/26 05:44:02;;;;;;;8.70;6.30;;;;;;;12.78;100.00;100110.08;1652236;85;21497;-72
2022/10/26 05:46:29;;;;;;;8.95;8.10;;;;;;;12.81;100.00;100109.67;1651837;85;21152;-73
2022/10/26 05:48:56;;;;;;;17.27;15.78;;;;;;;12.83;100.00;100104.41;1650121;85;20968;-71
2022/10/26 05:51:23;;;;;;;8.73;7.17;;;;;;;12.88;100.00;100104.29;1651670;85;22156;-73
2022/10/26 05:53:53;;;;;;;9.35;6.50;;;;;;;12.92;100.00;100109.52;1631649;83;21077;-72
2022/10/26 05:56:32;;;;;;;11.38;9.50;;;;;;;12.93;100.00;100107.98;1672497;84;21018;-72
2022/10/26 05:59:01;;;;;;;7.37;6.60;;;;;;;12.92;100.00;100108.19;1698863;83;21077;-73
2022/10/26 06:01:51;;;;;;;6.00;5.40;;;;;;;12.92;100.00;100110.37;1694935;84;21576;-71
2022/10/26 06:04:26;;;;;;;6.47;5.80;;;;;;;12.92;100.00;100114.38;1677014;84;21116;-72
2022/10/26 06:06:54;;;;;;;7.22;6.50;;;;;;;12.95;100.00;100114.47;1625877;86;21065;-72
2022/10/26 06:09:22;;;;;;;8.43;6.20;;;;;;;12.95;100.00;100114.47;1661368;84;21519;-72
2022/10/26 06:11:51;;;;;;;8.63;7.25;;;;;;;12.96;100.00;100114.27;1663997;84;21075;-72
2022/10/26 06:14:20;;;;;;;6.65;5.90;;;;;;;13.01;100.00;100114.43;1670178;84;21028;-72
2022/10/26 06:17:07;;;;;;;5.58;5.15;;;;;;;13.07;100.00;100121.32;1664751;85;21169;-72
2022/10/26 06:20:03;;;;;;;5.75;5.22;;;;;;;13.10;100.00;100119.05;1661007;85;21121;-68
2022/10/26 06:23:17;;;;;;;6.22;5.62;;;;;;;13.12;100.00;100124.20;1675857;84;21518;-73
2022/10/26 06:25:52;;;;;;;7.15;6.40;;;;;;;13.10;100.00;100130.28;1648131;84;21046;-69
2022/10/26 06:28:51;;;;;;;7.65;6.53;;;;;;;13.05;100.00;100129.06;1620814;87;21038;-73
2022/10/26 06:31:17;;;;;;;6.50;5.45;;;;;;;13.07;100.00;100135.52;1615907;86;21173;-71
2022/10/26 06:33:44;;;;;;;5.55;5.03;;;;;;;13.10;100.00;100132.43;1654970;84;21017;-70
2022/10/26 06:36:21;;;;;;;5.15;4.83;;;;;;;13.09;100.00;100136.65;1654679;85;21088;-72
2022/10/26 06:38:53;;;;;;;5.08;4.58;;;;;;;13.07;100.00;100137.38;1642761;86;21058;-74
2022/10/26 06:41:22;;;;;;;5.37;4.97;;;;;;;13.08;100.00;100141.71;1649371;85;21018;-69
2022/10/26 06:43:49;;;;;;;5.53;5.12;;;;;;;13.11;100.00;100148.81;1671146;85;21162;-75
2022/10/26 06:46:36;;;;;;;4.67;4.28;;;;;;;13.14;100.00;100146.22;1673902;84;21121;-72
2022/10/26 06:49:30;;;;;;;6.20;4.92;;;;;;;13.16;100.00;100144.16;1658171;84;21132;-74
2022/10/26 06:52:01;;;;;;;5.22;4.72;;;;;;;13.11;100.00;100148.81;1624428;87;21138;-73
2022/10/26 06:54:42;;;;;;;4.40;4.00;;;;;;;13.11;100.00;100154.16;1606244;84;21005;-71
2022/10/26 06:57:12;;;;;;;5.72;4.85;;;;;;;13.14;100.00;100163.61;1637760;86;20997;-72
2022/10/26 06:59:59;;;;;;;4.30;4.00;;;;;;;13.17;100.00;100165.88;1640230;86;21048;-73
2022/10/26 07:02:26;;;;;;;6.03;5.53;;;;;;;13.21;100.00;100157.73;1624692;86;21016;-73
2022/10/26 07:04:52;;;;;;;5.53;4.97;;;;;;;13.18;100.00;100157.62;1630330;86;21010;-71
2022/10/26 07:07:27;;;;;;;5.05;4.65;;;;;;;13.16;100.00;100161.55;1651201;85;21064;-73
2022/10/26 07:09:53;;;;;;;8.00;6.60;;;;;;;13.16;100.00;100161.55;1628700;86;21056;-75
2022/10/26 07:12:19;;;;;;;4.80;4.40;;;;;;;13.12;100.00;100166.48;1639126;85;21173;-74
2022/10/26 07:14:45;;;;;;;;;;;;;;;13.12;100.00;100164.34;1656773;86;21014;-73
2022/10/26 07:17:13;;;;;;;;;;;;;;;13.10;100.00;100166.41;1647079;85;20507;-71
2022/10/26 07:19:39;;;;;;;4.25;3.83;;;;;;;13.05;100.00;100174.55;1649770;85;20417;-73
2022/10/26 07:22:07;;;;;;;5.62;4.30;;;;;;;13.02;100.00;100170.94;1643953;86;21050;-73
2022/10/26 07:24:33;;;;;;;;;;;;;;;13.09;100.00;100176.78;1647754;86;21522;-67
2022/10/26 07:26:59;;;;;;;5.33;3.25;;;;;;;13.15;100.00;100174.64;1661652;85;20140;-71
2022/10/26 07:29:27;;;;;;;3.33;3.02;;;;;;;13.15;100.00;100178.65;1660374;85;21049;-63
2022/10/26 07:31:53;;;;;;;;;;;;;;;13.16;100.00;100177.08;1654934;85;21029;-64
2022/10/26 07:34:19;;;;;;;9.25;8.35;;;;;;;13.21;100.00;100184.50;1647084;85;20440;-64
2022/10/26 07:36:45;;;;;;;8.08;6.28;;;;;;;13.19;100.00;100189.23;1636230;85;21026;-65
2022/10/26 07:39:11;;;;;;;2.98;2.77;;;;;;;13.25;100.00;100190.55;1644094;85;21157;-64
2022/10/26 07:41:39;;;;;;;3.00;2.80;;;;;;;13.28;100.00;100186.65;1674265;83;20987;-66
2022/10/26 07:44:05;;;;;;;4.62;2.67;;;;;;;13.29;100.00;100193.63;1685214;83;21069;-68
2022/10/26 07:46:32;;;;;;;4.03;3.72;;;;;;;13.32;100.00;100187.08;1665659;85;21090;-65
2022/10/26 07:48:58;;;;;;;;;;;;;;;13.36;100.00;100190.98;1699544;81;21029;-64
2022/10/26 07:51:24;;;;;;;3.37;2.08;;;;;;;13.36;100.00;100195.81;1735523;81;20138;-64
2022/10/26 07:53:50;;;;;;;;;;;;;;;13.33;100.00;100197.56;1742972;81;21018;-64
2022/10/26 07:56:17;;;;;;;3.05;2.02;;;;;;;13.37;100.00;100186.77;1735140;82;20411;-63
2022/10/26 07:58:43;;;;;;;3.25;2.77;;;;;;;13.37;100.00;100191.27;1689453;84;21111;-65
2022/10/26 08:01:12;;;;;;;;;;;;;;;13.43;100.00;100188.59;1697447;84;21556;-65
2022/10/26 08:03:39;;;;;;;5.53;4.35;;;;;;;13.47;100.00;100188.15;1710900;83;20188;-66
2022/10/26 08:06:06;;;;;;;8.28;5.42;;;;;;;13.42;100.00;100192.28;1689512;83;21042;-65
2022/10/26 08:08:33;;;;;;;5.03;4.53;;;;;;;13.44;100.00;100191.55;1680802;84;21096;-64
2022/10/26 08:11:01;;;;;;;3.80;3.52;;;;;;;13.47;100.00;100197.52;1678732;84;21110;-64
2022/10/26 08:13:27;;;;;;;5.42;4.10;;;;;;;13.52;100.00;100199.87;1675284;84;21008;-65
2022/10/26 08:15:58;;;;;;;5.15;4.40;;;;;;;13.57;100.00;100201.41;1679377;84;21147;-64
2022/10/26 08:18:26;;;;;;;4.35;3.95;;;;;;;13.63;100.00;100202.41;1708853;83;21479;-64
2022/10/26 08:20:54;;;;;;;5.30;2.70;;;;;;;13.69;100.00;100209.59;1694285;84;21061;-65
2022/10/26 08:23:24;;;;;;;3.80;3.50;;;;;;;13.74;100.00;100209.79;1682608;84;21116;-66
2022/10/26 08:25:50;;;;;;;3.27;2.77;;;;;;;13.84;100.00;100210.67;1681970;85;21030;-64
2022/10/26 08:28:16;;;;;;;3.75;3.37;;;;;;;13.90;100.00;100202.30;1680895;84;21026;-76
2022/10/26 08:30:43;;;;;;;2.30;2.20;;;;;;;13.94;100.00;100203.02;1679068;84;21508;-66
2022/10/26 08:33:10;;;;;;;3.92;3.27;;;;;;;14.00;100.00;100206.70;1677389;84;21556;-63
2022/10/26 08:35:36;;;;;;;2.80;2.60;;;;;;;14.07;100.00;100198.11;1678437;83;21147;-64
2022/10/26 08:38:02;;;;;;;3.35;3.15;;;;;;;14.17;100.00;100205.68;1686593;83;20996;-65
2022/10/26 08:40:39;;;;;;;2.75;2.55;;;;;;;14.27;100.00;100206.55;1685073;84;21101;-66
2022/10/26 08:43:26;;;;;;;;;;;;;;;14.31;100.00;100193.00;1682694;85;20998;-64
2022/10/26 08:45:58;;;;;;;3.00;1.90;;;;;;;14.35;100.00;100199.08;1684221;84;20446;-64
2022/10/26 08:48:30;;;;;;;3.83;2.33;;;;;;;14.35;100.00;100211.64;1672262;84;21556;-64
2022/10/26 08:51:04;;;;;;;2.83;2.62;;;;;;;14.39;100.00;100214.19;1685284;84;21511;-63
2022/10/26 08:53:48;;;;;;;5.03;2.87;;;;;;;14.45;100.00;100211.16;1685857;83;21514;-66
2022/10/26 08:56:20;;;;;;;3.87;3.52;;;;;;;14.53;100.00;100214.94;1677841;84;21079;-67
2022/10/26 08:59:19;;;;;;;2.30;1.85;;;;;;;14.64;100.00;100214.80;1685347;84;21208;-66
2022/10/26 09:01:45;;;;;;;3.75;2.40;;;;;;;14.77;100.00;100210.66;1687315;84;20956;-65
2022/10/26 09:04:12;;;;;;;3.90;3.08;;;;;;;14.90;100.00;100219.94;1692378;84;21013;-64
2022/10/26 09:06:50;;;;;;;2.80;2.12;;;;;;;15.01;100.00;100224.28;1697475;84;21528;-65
2022/10/26 09:09:25;;;;;;;3.47;2.60;;;;;;;15.12;100.00;100223.02;1687281;84;20999;-64
2022/10/26 09:12:28;;;;;;;1.72;1.62;;;;;;;15.21;99.71;100222.23;1685159;84;21058;-72
2022/10/26 09:15:14;;;;;;;2.17;1.62;;;;;;;15.21;96.41;100220.08;1686327;84;21070;-64
2022/10/26 09:17:53;;;;;;;1.30;1.20;;;;;;;15.13;95.93;100226.55;1679217;84;21010;-63
2022/10/26 09:20:53;;;;;;;1.07;1.07;;;;;;;15.12;96.28;100228.39;1689312;84;21642;-64
2022/10/26 09:24:05;;;;;;;1.05;1.05;;;;;;;15.08;95.04;100228.54;1686391;84;21085;-64
2022/10/26 09:26:49;;;;;;;3.98;1.55;;;;;;;15.03;95.65;100228.91;1685776;84;21484;-65
2022/10/26 09:29:15;;;;;;;2.83;1.47;;;;;;;15.00;96.22;100240.91;1640307;85;21091;-66
2022/10/26 09:31:46;;;;;;;1.77;1.57;;;;;;;15.04;96.46;100237.27;1674976;85;21556;-67
2022/10/26 09:34:30;;;;;;;5.70;2.02;;;;;;;15.08;95.80;100237.13;1621501;87;21039;-65
2022/10/26 09:36:56;;;;;;;2.02;1.55;;;;;;;15.08;96.27;100232.56;1623863;87;21110;-66
2022/10/26 09:39:35;;;;;;;4.12;1.50;;;;;;;15.08;96.40;100233.91;1677944;84;21010;-67
2022/10/26 09:42:13;;;;;;;2.20;1.52;;;;;;;15.09;96.02;100233.41;1686314;83;21098;-64
2022/10/26 09:44:48;;;;;;;2.55;2.35;;;;;;;15.12;96.38;100228.92;1668393;84;21084;-65
2022/10/26 09:47:37;;;;;;;2.62;1.92;;;;;;;15.17;96.05;100229.09;1634988;85;21130;-66
2022/10/26 09:50:26;;;;;;;1.92;1.70;;;;;;;15.22;96.01;100227.91;1677300;84;21000;-66
2022/10/26 09:52:53;;;;;;;2.50;2.30;;;;;;;15.30;96.09;100225.46;1677877;84;21031;-65
2022/10/26 09:55:21;;;;;;;;;;;;;;;15.40;96.09;100231.66;1682687;84;21078;-65
2022/10/26 09:57:55;;;;;;;4.87;4.47;;;;;;;15.51;95.51;100227.70;1631323;85;20162;-67
2022/10/26 10:00:24;;;;;;;5.65;3.10;;;;;;;15.57;95.80;100218.73;1672967;84;21479;-65
2022/10/26 10:02:56;;;;;;;1.92;1.82;;;;;;;15.69;94.93;100225.55;1678323;84;21181;-64
2022/10/26 10:05:35;;;;;;;1.77;1.67;;;;;;;15.77;94.35;100223.11;1669792;84;20931;-64
2022/10/26 10:08:21;;;;;;;1.22;1.12;;;;;;;15.83;92.97;100231.61;1679750;84;21059;-64
2022/10/26 10:10:58;;;;;;;;;;;;;;;15.79;92.65;100229.08;1671729;84;21552;-67
2022/10/26 10:13:31;;;;;;;2.65;1.50;;;;;;;15.73;92.57;100230.80;1681524;83;20194;-64
2022/10/26 10:16:12;;;;;;;2.95;1.22;;;;;;;15.65;93.11;100235.11;1669363;84;21050;-66
2022/10/26 10:18:41;;;;;;;1.75;1.65;;;;;;;15.67;93.51;100233.52;1681073;84;21170;-65
2022/10/26 10:21:10;;;;;;;1.92;1.82;;;;;;;15.71;93.76;100236.89;1684927;84;21054;-65
2022/10/26 10:23:53;;;;;;;1.20;1.20;;;;;;;15.74;93.73;100239.67;1683163;84;21153;-65
2022/10/26 10:26:19;;;;;;;3.05;2.05;;;;;;;15.72;93.73;100227.77;1694694;84;21106;-68
2022/10/26 10:28:57;;;;;;;;;;;;;;;15.72;93.56;100231.80;1674706;83;21035;-65
2022/10/26 10:31:30;;;;;;;;;;;;;;;15.72;93.43;100235.02;1681197;84;20424;-66
2022/10/26 10:33:58;;;;;;;3.00;2.10;;;;;;;15.67;93.36;100231.67;1682052;84;20442;-65
2022/10/26 10:36:29;;;;;;;2.10;2.00;;;;;;;15.64;93.32;100234.80;1684152;84;21035;-64
2022/10/26 10:38:57;;;;;;;4.30;2.50;;;;;;;15.69;93.65;100226.89;1680728;84;21082;-66
2022/10/26 10:41:31;;;;;;;5.70;2.55;;;;;;;15.73;93.53;100222.73;1673712;84;21086;-64
2022/10/26 10:44:19;;;;;;;2.00;1.90;;;;;;;15.82;93.58;100221.08;1677664;84;21062;-68
2022/10/26 10:46:48;;;;;;;2.50;1.77;;;;;;;15.90;92.14;100221.59;1673987;84;21087;-66
2022/10/26 10:49:23;;;;;;;1.77;1.67;;;;;;;15.95;90.79;100226.28;1678895;84;21082;-67
2022/10/26 10:51:51;;;;;;;2.72;1.37;;;;;;;15.94;89.08;100226.81;1673781;84;21178;-68
2022/10/26 10:54:36;;;;;;;2.37;0.98;;;;;;;15.91;89.02;100229.94;1684192;84;21043;-67
2022/10/26 10:57:17;;;;;;;2.15;1.95;;;;;;;15.90;88.67;100239.07;1685767;84;21028;-67
2022/10/26 11:00:07;;;;;;;2.17;1.80;;;;;;;15.90;88.93;100234.22;1686333;84;21516;-67
2022/10/26 11:03:06;;;;;;;3.02;2.05;;;;;;;15.81;89.09;100245.80;1686371;84;21517;-66
2022/10/26 11:05:54;;;;;;;3.92;2.22;;;;;;;15.72;89.41;100246.58;1678615;84;21035;-67
2022/10/26 11:08:26;;;;;;;4.62;2.40;;;;;;;15.72;89.32;100241.73;1678743;84;21004;-69
2022/10/26 11:11:18;;;;;;;2.12;1.67;;;;;;;15.65;89.44;100243.17;1678684;84;21526;-70
2022/10/26 11:14:09;;;;;;;2.70;2.25;;;;;;;15.57;89.32;100239.42;1680101;84;21747;-66
2022/10/26 11:17:07;;;;;;;2.70;2.25;;;;;;;15.49;90.22;100236.51;1668785;84;21559;-67
2022/10/26 11:19:39;;;;;;;3.40;3.10;;;;;;;15.40;91.00;100247.23;1606909;89;21114;-66
2022/10/26 11:22:10;;;;;;;5.87;2.77;;;;;;;15.29;91.91;100243.95;1657555;85;21046;-68
2022/10/26 11:25:01;;;;;;;2.77;2.58;;;;;;;15.26;92.47;100247.91;1654115;85;21732;-67
2022/10/26 11:27:38;;;;;;;3.27;2.92;;;;;;;15.32;92.71;100242.17;1644852;87;21612;-66
2022/10/26 11:30:11;;;;;;;4.87;3.27;;;;;;;15.41;92.55;100239.50;1621879;88;21092;-67
2022/10/26 11:33:00;;;;;;;5.25;3.02;;;;;;;15.51;92.64;100243.00;1675731;84;21060;-68
2022/10/26 11:35:32;;;;;;;3.17;2.98;;;;;;;15.62;92.27;100244.95;1680921;85;21060;-68
2022/10/26 11:38:37;;;;;;;4.67;2.55;;;;;;;15.69;91.34;100239.48;1685306;85;20997;-69
2022/10/26 11:41:40;;;;;;;2.12;2.00;;;;;;;15.78;90.08;100244.08;1690387;84;20998;-67
2022/10/26 11:44:29;;;;;;;4.53;4.08;;;;;;;15.86;90.09;100237.05;1691074;84;21161;-65
2022/10/26 11:47:10;;;;;;;4.25;2.55;;;;;;;15.95;88.78;100242.41;1683591;84;21131;-69
2022/10/26 11:49:53;;;;;;;2.70;2.37;;;;;;;16.03;87.30;100242.12;1633902;85;21562;-67
2022/10/26 11:52:24;;;;;;;2.45;2.05;;;;;;;16.11;86.74;100238.30;1639922;83;21146;-67